Time;durP1;ratioP1;P1;durP2;ratioP2;P2;SDS_P1;SDS_P2;PMS_P1;PMS_P2;Temp;Humidity;BMP_temperature;BMP_pressure;BME280_temperature;BME280_humidity;BME280_pressure;Samples;Min_cycle;Max_cycle;Signal;HPM_P1;HPM_P2
2022/05/30 00:01:42;;;;;;;;;;;8.90;99.90;;;;;;5070678;28;20039;-81
2022/05/30 00:04:07;;;;;;;;;;;8.90;99.90;;;;;;5063873;28;19925;-81
2022/05/30 00:06:33;;;;;;;;;;;8.90;99.90;;;;;;5050715;28;19925;-81
2022/05/30 00:08:58;;;;;;;;;;;8.90;99.90;;;;;;5064912;28;19925;-81
2022/05/30 00:11:26;;;;;;;;;;;8.90;99.90;;;;;;5062513;28;19983;-81
2022/05/30 00:13:52;;;;;;;;;;;8.90;99.90;;;;;;5066869;28;20012;-81
2022/05/30 00:16:19;;;;;;;;;;;9.00;99.90;;;;;;5060072;28;20600;-81
2022/05/30 00:18:45;;;;;;;;;;;9.00;99.90;;;;;;5056672;28;19971;-81
2022/05/30 00:21:10;;;;;;;;;;;9.00;99.90;;;;;;5085352;28;19931;-81
2022/05/30 00:23:36;;;;;;;;;;;9.00;99.90;;;;;;5069514;28;19925;-81
2022/05/30 00:26:06;;;;;;;;;;;9.00;99.90;;;;;;5031897;28;19929;-81
2022/05/30 00:28:32;;;;;;;;;;;9.00;99.90;;;;;;5062266;28;19938;-81
2022/05/30 00:30:57;;;;;;;;;;;9.00;99.90;;;;;;5064749;28;19925;-82
2022/05/30 00:33:23;;;;;;;;;;;9.00;99.90;;;;;;5059694;28;19928;-81
2022/05/30 00:35:48;;;;;;;;;;;9.10;99.90;;;;;;5069922;28;19932;-81
2022/05/30 00:38:14;;;;;;;;;;;9.10;99.90;;;;;;5070734;28;19925;-82
2022/05/30 00:40:40;;;;;;;;;;;9.10;99.90;;;;;;5070227;28;19968;-82
2022/05/30 00:43:26;;;;;;;;;;;9.10;99.90;;;;;;5068651;28;20030;-81
2022/05/30 00:45:52;;;;;;;;;;;9.10;99.90;;;;;;5059265;28;19925;-82
2022/05/30 00:48:18;;;;;;;;;;;9.10;99.90;;;;;;5049615;28;19924;-81
2022/05/30 00:50:44;;;;;;;;;;;9.10;99.90;;;;;;5070318;28;19931;-82
2022/05/30 00:53:10;;;;;;;;;;;9.10;99.90;;;;;;5051755;28;19924;-82
2022/05/30 00:55:36;;;;;;;;;;;9.00;99.90;;;;;;5070395;28;19948;-82
2022/05/30 00:58:02;;;;;;;;;;;9.00;99.90;;;;;;5070265;28;19929;-82
2022/05/30 01:00:28;;;;;;;;;;;9.00;99.90;;;;;;5085754;28;19932;-82
2022/05/30 01:08:25;;;;;;;;;;;9.00;99.90;;;;;;5085602;28;19924;-82
2022/05/30 01:10:51;;;;;;;;;;;9.00;99.90;;;;;;5070058;28;20058;-82
2022/05/30 01:13:16;;;;;;;;;;;9.00;99.90;;;;;;5069667;28;20046;-82
2022/05/30 01:15:42;;;;;;;;;;;9.00;99.90;;;;;;5085049;28;19925;-82
2022/05/30 01:18:13;;;;;;;;;;;9.00;99.90;;;;;;5085436;28;19925;-82
2022/05/30 01:20:57;;;;;;;;;;;9.00;99.90;;;;;;5085173;28;19924;-81
2022/05/30 01:23:38;;;;;;;;;;;9.00;99.90;;;;;;5039669;28;19932;-82
2022/05/30 01:26:12;;;;;;;;;;;9.10;99.90;;;;;;5055891;28;20028;-81
2022/05/30 01:28:38;;;;;;;;;;;9.00;99.90;;;;;;5069580;28;19966;-81
2022/05/30 01:31:03;;;;;;;;;;;9.00;99.90;;;;;;5051653;28;20382;-81
2022/05/30 01:33:29;;;;;;;;;;;9.00;99.90;;;;;;5052633;28;19924;-81
2022/05/30 01:35:54;;;;;;;;;;;9.00;99.90;;;;;;5070810;28;19970;-82
2022/05/30 01:38:22;;;;;;;;;;;8.90;99.90;;;;;;5086341;28;20456;-81
2022/05/30 01:40:48;;;;;;;;;;;8.90;99.90;;;;;;5087781;28;19931;-82
2022/05/30 01:43:13;;;;;;;;;;;9.00;99.90;;;;;;5073596;28;20301;-82
2022/05/30 01:45:39;;;;;;;;;;;8.90;99.90;;;;;;5089976;28;19925;-81
2022/05/30 01:48:05;;;;;;;;;;;8.90;99.90;;;;;;5074776;28;19970;-81
2022/05/30 01:50:30;;;;;;;;;;;8.90;99.90;;;;;;5039980;28;20467;-81
2022/05/30 01:52:55;;;;;;;;;;;8.80;99.90;;;;;;5089857;28;19925;-82
2022/05/30 01:55:21;;;;;;;;;;;8.70;99.90;;;;;;5056625;28;19924;-81
2022/05/30 01:57:46;;;;;;;;;;;8.70;99.90;;;;;;5088923;28;20062;-82
2022/05/30 02:00:12;;;;;;;;;;;8.70;99.90;;;;;;5055807;28;19924;-82
2022/05/30 02:02:38;;;;;;;;;;;8.60;99.90;;;;;;5073913;28;19925;-81
2022/05/30 02:05:06;;;;;;;;;;;8.60;99.90;;;;;;5090549;28;19932;-82
2022/05/30 02:07:32;;;;;;;;;;;8.50;99.90;;;;;;5090471;28;20360;-82
2022/05/30 02:09:57;;;;;;;;;;;8.50;99.90;;;;;;5076730;28;20016;-81
2022/05/30 02:12:23;;;;;;;;;;;8.50;99.90;;;;;;5042818;28;19936;-82
2022/05/30 02:14:48;;;;;;;;;;;8.40;99.90;;;;;;5075391;28;19925;-82
2022/05/30 02:17:14;;;;;;;;;;;8.40;99.90;;;;;;5054228;28;19933;-81
2022/05/30 02:19:41;;;;;;;;;;;8.30;99.90;;;;;;5064455;28;20439;-82
2022/05/30 02:22:08;;;;;;;;;;;8.30;99.90;;;;;;5057015;28;19929;-81
2022/05/30 02:24:34;;;;;;;;;;;8.30;99.90;;;;;;5071753;28;19975;-82
2022/05/30 02:26:59;;;;;;;;;;;8.30;99.90;;;;;;5072139;28;20350;-81
2022/05/30 02:29:25;;;;;;;;;;;8.20;99.90;;;;;;5073615;28;19928;-80
2022/05/30 02:31:50;;;;;;;;;;;8.20;99.90;;;;;;5072632;28;20259;-81
2022/05/30 02:37:00;;;;;;;;;;;8.20;99.90;;;;;;5074635;28;19925;-81
2022/05/30 02:39:26;;;;;;;;;;;8.20;99.90;;;;;;5075878;28;19932;-81
2022/05/30 02:41:52;;;;;;;;;;;8.20;99.90;;;;;;5052603;28;20400;-81
2022/05/30 02:44:20;;;;;;;;;;;8.20;99.90;;;;;;5072481;28;19925;-81
2022/05/30 02:46:47;;;;;;;;;;;8.20;99.90;;;;;;5050497;28;21407;-81
2022/05/30 02:49:12;;;;;;;;;;;8.20;99.90;;;;;;5050724;28;20055;-82
2022/05/30 02:51:38;;;;;;;;;;;8.20;99.90;;;;;;5052419;28;20583;-81
2022/05/30 02:54:03;;;;;;;;;;;8.20;99.90;;;;;;5072262;28;19929;-81
2022/05/30 02:56:29;;;;;;;;;;;8.10;99.90;;;;;;5086071;28;20359;-81
2022/05/30 02:58:57;;;;;;;;;;;8.10;99.90;;;;;;5054103;28;19931;-81
2022/05/30 03:01:22;;;;;;;;;;;8.10;99.90;;;;;;5072284;28;19947;-81
2022/05/30 03:03:48;;;;;;;;;;;8.10;99.90;;;;;;5086082;28;20433;-81
2022/05/30 03:06:13;;;;;;;;;;;8.20;99.90;;;;;;5054518;28;19931;-81
2022/05/30 03:08:39;;;;;;;;;;;8.20;99.90;;;;;;5087490;28;19924;-81
2022/05/30 03:11:04;;;;;;;;;;;8.20;99.90;;;;;;5080803;28;20350;-81
2022/05/30 03:13:30;;;;;;;;;;;8.20;99.90;;;;;;5064298;28;19953;-81
2022/05/30 03:15:55;;;;;;;;;;;8.20;99.90;;;;;;5054065;28;20321;-81
2022/05/30 03:18:21;;;;;;;;;;;8.20;99.90;;;;;;5087961;28;19931;-81
2022/05/30 03:20:46;;;;;;;;;;;8.20;99.90;;;;;;5085510;28;19928;-81
2022/05/30 03:23:12;;;;;;;;;;;8.20;99.90;;;;;;5067725;28;19974;-81
2022/05/30 03:25:37;;;;;;;;;;;8.20;99.90;;;;;;5070387;28;19963;-81
2022/05/30 03:28:03;;;;;;;;;;;8.30;99.90;;;;;;5064435;28;19931;-81
2022/05/30 03:30:29;;;;;;;;;;;8.20;99.90;;;;;;5045987;28;19924;-82
2022/05/30 03:32:54;;;;;;;;;;;8.30;99.90;;;;;;5071824;28;19983;-82
2022/05/30 03:35:20;;;;;;;;;;;8.30;99.90;;;;;;5053675;28;19970;-82
2022/05/30 03:37:45;;;;;;;;;;;8.30;99.90;;;;;;5086883;28;20027;-81
2022/05/30 03:40:13;;;;;;;;;;;8.30;99.90;;;;;;5083518;28;20068;-81
2022/05/30 03:42:39;;;;;;;;;;;8.30;99.90;;;;;;5059817;28;20339;-81
2022/05/30 03:45:05;;;;;;;;;;;8.30;99.90;;;;;;5087011;28;19928;-82
2022/05/30 03:47:37;;;;;;;;;;;8.30;99.90;;;;;;5070741;28;19932;-81
2022/05/30 03:50:03;;;;;;;;;;;8.40;99.90;;;;;;5058206;28;19925;-81
2022/05/30 03:52:29;;;;;;;;;;;8.40;99.90;;;;;;5066439;28;20334;-81
2022/05/30 03:54:54;;;;;;;;;;;8.30;99.90;;;;;;5078591;28;19928;-82
2022/05/30 03:57:20;;;;;;;;;;;8.30;99.90;;;;;;5085261;28;19935;-81
2022/05/30 03:59:46;;;;;;;;;;;8.30;99.90;;;;;;5086813;28;20485;-82
2022/05/30 04:02:12;;;;;;;;;;;8.20;99.90;;;;;;5069231;28;19982;-81
2022/05/30 04:04:37;;;;;;;;;;;8.20;99.90;;;;;;5086163;28;20053;-82
2022/05/30 04:07:03;;;;;;;;;;;8.20;99.90;;;;;;5052838;28;19929;-81
2022/05/30 04:09:28;;;;;;;;;;;8.20;99.90;;;;;;5053081;28;19924;-81
2022/05/30 04:11:54;;;;;;;;;;;8.20;99.90;;;;;;5086261;28;19931;-82
2022/05/30 04:14:19;;;;;;;;;;;8.20;99.90;;;;;;5039419;28;20009;-81
2022/05/30 04:16:45;;;;;;;;;;;8.20;99.90;;;;;;5053292;28;19925;-81
2022/05/30 04:19:11;;;;;;;;;;;8.20;99.90;;;;;;5086836;28;20468;-82
2022/05/30 04:21:36;;;;;;;;;;;8.20;99.90;;;;;;5078905;28;19924;-82
2022/05/30 04:24:02;;;;;;;;;;;8.10;99.90;;;;;;5045423;28;20023;-81
2022/05/30 04:26:28;;;;;;;;;;;8.10;99.90;;;;;;5086452;28;19963;-82
2022/05/30 04:28:53;;;;;;;;;;;8.10;99.90;;;;;;5051564;28;19932;-82
2022/05/30 04:31:19;;;;;;;;;;;8.10;99.90;;;;;;5082854;28;19931;-82
2022/05/30 04:33:44;;;;;;;;;;;8.10;99.90;;;;;;5078562;28;19931;-81
2022/05/30 04:36:11;;;;;;;;;;;8.10;99.90;;;;;;5070152;28;20947;-81
2022/05/30 04:38:36;;;;;;;;;;;8.10;99.90;;;;;;5067269;28;19925;-81
2022/05/30 04:41:02;;;;;;;;;;;8.10;99.90;;;;;;5066436;28;19924;-82
2022/05/30 04:43:28;;;;;;;;;;;8.10;99.90;;;;;;5048072;28;19925;-81
2022/05/30 04:46:07;;;;;;;;;;;8.10;99.90;;;;;;5070783;28;19924;-81
2022/05/30 04:48:32;;;;;;;;;;;8.10;99.90;;;;;;5085333;28;20013;-81
2022/05/30 04:50:58;;;;;;;;;;;8.10;99.90;;;;;;5053032;28;20035;-81
2022/05/30 04:53:24;;;;;;;;;;;8.10;99.90;;;;;;5070351;28;20492;-81
2022/05/30 04:55:49;;;;;;;;;;;8.10;99.90;;;;;;5051587;28;19929;-81
2022/05/30 04:58:15;;;;;;;;;;;8.10;99.90;;;;;;5070289;28;20302;-81
2022/05/30 05:00:40;;;;;;;;;;;8.20;99.90;;;;;;5053074;28;19928;-81
2022/05/30 05:03:06;;;;;;;;;;;8.20;99.90;;;;;;5052744;28;20387;-81
2022/05/30 05:05:31;;;;;;;;;;;8.20;99.90;;;;;;5071166;28;19924;-81
2022/05/30 05:08:05;;;;;;;;;;;8.30;99.90;;;;;;5082500;28;20406;-81
2022/05/30 05:10:49;;;;;;;;;;;8.30;99.90;;;;;;5062645;28;20361;-81
2022/05/30 05:13:14;;;;;;;;;;;8.40;99.90;;;;;;5087081;28;20002;-81
2022/05/30 05:15:40;;;;;;;;;;;8.40;99.90;;;;;;5071091;28;19983;-81
2022/05/30 05:18:05;;;;;;;;;;;8.50;99.90;;;;;;5057098;28;19931;-81
2022/05/30 05:20:38;;;;;;;;;;;8.60;99.90;;;;;;5091224;28;19925;-81
2022/05/30 05:23:04;;;;;;;;;;;8.70;99.90;;;;;;5090944;28;19924;-80
2022/05/30 05:25:29;;;;;;;;;;;8.80;99.90;;;;;;5090798;28;20370;-80
2022/05/30 05:27:55;;;;;;;;;;;8.90;99.90;;;;;;5090515;28;20355;-79
2022/05/30 05:30:20;;;;;;;;;;;9.00;99.90;;;;;;5091340;28;19967;-81
2022/05/30 05:32:46;;;;;;;;;;;9.00;99.90;;;;;;5074381;28;19925;-80
2022/05/30 05:35:11;;;;;;;;;;;9.10;99.90;;;;;;5058167;28;20608;-80
2022/05/30 05:37:37;;;;;;;;;;;9.10;99.90;;;;;;5074282;28;19935;-80
2022/05/30 05:40:03;;;;;;;;;;;9.20;99.90;;;;;;5059161;28;20309;-80
2022/05/30 05:42:28;;;;;;;;;;;9.30;99.90;;;;;;5090207;28;20370;-80
2022/05/30 05:44:54;;;;;;;;;;;9.30;99.90;;;;;;5091173;28;20612;-80
2022/05/30 05:47:20;;;;;;;;;;;9.40;99.90;;;;;;5074859;28;19924;-80
2022/05/30 05:49:45;;;;;;;;;;;9.50;99.90;;;;;;5075855;28;20290;-81
2022/05/30 05:52:12;;;;;;;;;;;9.60;99.90;;;;;;5061369;28;19971;-78
2022/05/30 05:54:37;;;;;;;;;;;9.60;99.90;;;;;;5051456;28;20246;-78
2022/05/30 05:57:03;;;;;;;;;;;9.70;99.90;;;;;;5086326;28;19924;-80
2022/05/30 05:59:28;;;;;;;;;;;9.80;99.90;;;;;;5082850;28;20485;-80
2022/05/30 06:01:54;;;;;;;;;;;9.80;99.90;;;;;;5068376;28;20000;-80
2022/05/30 06:04:19;;;;;;;;;;;9.90;99.90;;;;;;5064061;28;19924;-79
2022/05/30 06:06:45;;;;;;;;;;;9.90;99.90;;;;;;5062699;28;19929;-80
2022/05/30 06:09:10;;;;;;;;;;;10.00;99.90;;;;;;5068141;28;19931;-80
2022/05/30 06:11:36;;;;;;;;;;;10.00;99.90;;;;;;5041268;28;20340;-80
2022/05/30 06:14:01;;;;;;;;;;;10.10;99.90;;;;;;5070709;28;19939;-80
2022/05/30 06:16:28;;;;;;;;;;;10.10;99.90;;;;;;5059540;28;19928;-81
2022/05/30 06:18:55;;;;;;;;;;;10.20;99.90;;;;;;5061618;28;19964;-81
2022/05/30 06:21:23;;;;;;;;;;;10.20;99.90;;;;;;5042287;28;19929;-81
2022/05/30 06:23:52;;;;;;;;;;;10.20;99.90;;;;;;5064458;28;19933;-81
2022/05/30 06:26:17;;;;;;;;;;;10.30;99.90;;;;;;5053880;28;19971;-81
2022/05/30 06:28:44;;;;;;;;;;;10.30;99.90;;;;;;5071771;28;19971;-81
2022/05/30 06:31:11;;;;;;;;;;;10.40;99.90;;;;;;5057587;28;19989;-81
2022/05/30 06:33:37;;;;;;;;;;;10.50;99.90;;;;;;5083167;28;20338;-81
2022/05/30 06:36:03;;;;;;;;;;;10.50;99.90;;;;;;5074321;28;19931;-81
2022/05/30 06:38:29;;;;;;;;;;;10.60;99.90;;;;;;5071332;28;20023;-81
2022/05/30 06:40:54;;;;;;;;;;;10.70;99.90;;;;;;5066906;28;20008;-81
2022/05/30 06:43:20;;;;;;;;;;;10.80;99.90;;;;;;5071714;28;19931;-81
2022/05/30 06:45:46;;;;;;;;;;;10.80;99.90;;;;;;5075415;28;19930;-81
2022/05/30 06:48:12;;;;;;;;;;;10.90;99.90;;;;;;5074231;28;19932;-81
2022/05/30 06:50:38;;;;;;;;;;;11.10;99.90;;;;;;5067675;28;19924;-81
2022/05/30 06:53:04;;;;;;;;;;;11.10;99.90;;;;;;5050663;28;19978;-81
2022/05/30 06:55:33;;;;;;;;;;;11.10;99.90;;;;;;5072323;28;20027;-81
2022/05/30 06:58:13;;;;;;;;;;;11.10;99.90;;;;;;5071735;28;19967;-81
2022/05/30 07:00:39;;;;;;;;;;;11.10;99.90;;;;;;5068967;28;19924;-80
2022/05/30 07:03:04;;;;;;;;;;;11.00;99.90;;;;;;5086712;28;20464;-80
2022/05/30 07:05:30;;;;;;;;;;;11.00;99.90;;;;;;5093984;28;19979;-80
2022/05/30 07:07:56;;;;;;;;;;;11.10;99.90;;;;;;5052871;28;20413;-80
2022/05/30 07:10:22;;;;;;;;;;;11.20;99.90;;;;;;5070883;28;20348;-82
2022/05/30 07:12:47;;;;;;;;;;;11.30;99.90;;;;;;5076524;28;19947;-81
2022/05/30 07:15:13;;;;;;;;;;;11.40;99.90;;;;;;5046705;28;20378;-81
2022/05/30 07:17:38;;;;;;;;;;;11.60;99.90;;;;;;5069324;28;19924;-81
2022/05/30 07:20:04;;;;;;;;;;;11.60;99.90;;;;;;5037587;28;19929;-81
2022/05/30 07:22:29;;;;;;;;;;;11.70;99.90;;;;;;5085132;28;20046;-81
2022/05/30 07:24:55;;;;;;;;;;;11.80;99.90;;;;;;5051167;28;19925;-81
2022/05/30 07:27:20;;;;;;;;;;;11.90;99.90;;;;;;5051879;28;20289;-81
2022/05/30 07:29:46;;;;;;;;;;;12.00;99.90;;;;;;5050690;28;19975;-81
2022/05/30 07:32:11;;;;;;;;;;;12.00;99.90;;;;;;5053045;28;19977;-81
2022/05/30 07:34:37;;;;;;;;;;;12.00;99.90;;;;;;5052715;28;19935;-81
2022/05/30 07:37:03;;;;;;;;;;;12.00;99.90;;;;;;5086360;28;19947;-81
2022/05/30 07:39:28;;;;;;;;;;;12.00;99.90;;;;;;5069865;28;19950;-81
2022/05/30 07:41:54;;;;;;;;;;;12.00;99.90;;;;;;5052361;28;21195;-81
2022/05/30 07:44:19;;;;;;;;;;;12.10;99.90;;;;;;5070300;28;19931;-80
2022/05/30 07:46:45;;;;;;;;;;;12.30;99.90;;;;;;5069483;28;20391;-80
2022/05/30 07:49:12;;;;;;;;;;;12.40;99.90;;;;;;5079406;28;19924;-81
2022/05/30 07:51:37;;;;;;;;;;;12.40;99.90;;;;;;5085710;28;19932;-80
2022/05/30 07:54:03;;;;;;;;;;;12.60;99.90;;;;;;5052604;28;20278;-81
2022/05/30 07:56:29;;;;;;;;;;;12.60;99.90;;;;;;5052584;28;20024;-80
2022/05/30 07:58:54;;;;;;;;;;;12.70;99.90;;;;;;5052240;28;19986;-81
2022/05/30 08:01:20;;;;;;;;;;;12.80;99.90;;;;;;5052460;28;19932;-80
2022/05/30 08:03:46;;;;;;;;;;;12.80;99.90;;;;;;5069868;28;19931;-81
2022/05/30 08:06:16;;;;;;;;;;;12.90;99.90;;;;;;5051806;28;20011;-80
2022/05/30 08:08:42;;;;;;;;;;;12.90;99.90;;;;;;5085529;28;19924;-80
2022/05/30 08:11:08;;;;;;;;;;;12.90;99.90;;;;;;5070086;28;19996;-80
2022/05/30 08:13:33;;;;;;;;;;;12.80;99.90;;;;;;5074352;28;20382;-80
2022/05/30 08:15:59;;;;;;;;;;;12.90;99.90;;;;;;5068726;28;20039;-80
2022/05/30 08:18:25;;;;;;;;;;;12.80;99.90;;;;;;5052026;28;20011;-80
2022/05/30 08:20:50;;;;;;;;;;;12.80;99.90;;;;;;5069777;28;20033;-80
2022/05/30 08:23:17;;;;;;;;;;;12.80;99.90;;;;;;5052211;28;19978;-80
2022/05/30 08:25:43;;;;;;;;;;;12.90;99.90;;;;;;5051847;28;19928;-80
2022/05/30 08:28:09;;;;;;;;;;;13.00;99.90;;;;;;5069517;28;20011;-80
2022/05/30 08:30:34;;;;;;;;;;;13.00;99.90;;;;;;5052090;28;20373;-80
2022/05/30 08:33:00;;;;;;;;;;;13.10;99.90;;;;;;5051994;28;19924;-80
2022/05/30 08:35:26;;;;;;;;;;;13.30;99.90;;;;;;5051871;28;19977;-80
2022/05/30 08:37:55;;;;;;;;;;;13.40;99.90;;;;;;5085447;28;19984;-80
2022/05/30 08:43:11;;;;;;;;;;;13.50;99.90;;;;;;5083999;28;19924;-80
2022/05/30 08:45:37;;;;;;;;;;;13.60;99.90;;;;;;5062156;28;19959;-80
2022/05/30 08:48:08;;;;;;;;;;;13.60;99.90;;;;;;5064617;28;19928;-80
2022/05/30 08:50:39;;;;;;;;;;;13.50;99.90;;;;;;5069205;28;19947;-80
2022/05/30 08:53:07;;;;;;;;;;;13.40;99.90;;;;;;5059376;28;20328;-81
2022/05/30 08:55:42;;;;;;;;;;;13.20;99.90;;;;;;5050922;28;20003;-82
2022/05/30 08:58:11;;;;;;;;;;;12.90;99.90;;;;;;5069557;28;20034;-82
2022/05/30 09:00:51;;;;;;;;;;;12.50;99.90;;;;;;5067553;28;19931;-81
2022/05/30 09:04:07;;;;;;;;;;;12.20;99.90;;;;;;5074492;28;19931;-81
2022/05/30 09:06:33;;;;;;;;;;;11.90;99.90;;;;;;5053280;28;19931;-81
2022/05/30 09:09:01;;;;;;;;;;;11.70;99.90;;;;;;5051316;28;20027;-80
2022/05/30 09:11:35;;;;;;;;;;;11.60;99.90;;;;;;5069347;28;19925;-80
2022/05/30 09:14:04;;;;;;;;;;;11.60;99.90;;;;;;5069347;28;19925;-80
2022/05/30 09:16:29;;;;;;;;;;;11.60;99.90;;;;;;5038347;28;19928;-80
2022/05/30 09:18:56;;;;;;;;;;;11.60;99.90;;;;;;5048190;28;19924;-80
2022/05/30 09:21:22;;;;;;;;;;;11.70;99.90;;;;;;5051251;28;19931;-80
2022/05/30 09:23:48;;;;;;;;;;;11.90;99.90;;;;;;5051789;28;19928;-80
2022/05/30 09:26:18;;;;;;;;;;;12.00;99.90;;;;;;5085025;28;19924;-80
2022/05/30 09:28:44;;;;;;;;;;;12.20;99.90;;;;;;5051109;28;19969;-80
2022/05/30 09:31:25;;;;;;;;;;;12.30;99.90;;;;;;5068839;28;19939;-80
2022/05/30 09:33:52;;;;;;;;;;;12.50;99.90;;;;;;5068915;28;20417;-79
2022/05/30 09:36:19;;;;;;;;;;;12.60;99.90;;;;;;5068951;28;19986;-80
2022/05/30 09:38:58;;;;;;;;;;;12.80;99.90;;;;;;5050895;28;19931;-79
2022/05/30 09:41:25;;;;;;;;;;;12.90;99.90;;;;;;5068938;28;19994;-80
2022/05/30 09:43:55;;;;;;;;;;;13.10;99.90;;;;;;5050933;28;19932;-79
2022/05/30 09:46:33;;;;;;;;;;;13.30;99.90;;;;;;5069056;28;19969;-79
2022/05/30 09:49:01;;;;;;;;;;;13.50;99.90;;;;;;5056683;28;19925;-80
2022/05/30 09:51:30;;;;;;;;;;;13.70;99.90;;;;;;5051282;28;20454;-78
2022/05/30 09:53:56;;;;;;;;;;;13.90;99.90;;;;;;5064905;28;19928;-79
2022/05/30 09:56:23;;;;;;;;;;;14.20;99.90;;;;;;5069165;28;20282;-79
2022/05/30 09:58:59;;;;;;;;;;;14.40;99.90;;;;;;5084390;28;20787;-80
2022/05/30 10:01:25;;;;;;;;;;;14.40;99.90;;;;;;5052257;28;20023;-81
2022/05/30 10:03:56;;;;;;;;;;;14.20;99.90;;;;;;5072569;28;19931;-79
2022/05/30 10:06:24;;;;;;;;;;;14.00;99.90;;;;;;5072546;28;19925;-79
2022/05/30 10:08:51;;;;;;;;;;;13.70;99.90;;;;;;5054035;28;19935;-79
2022/05/30 10:11:32;;;;;;;;;;;13.50;99.90;;;;;;5072038;28;19932;-80
2022/05/30 10:13:58;;;;;;;;;;;13.30;99.90;;;;;;5052183;28;20029;-80
2022/05/30 10:16:33;;;;;;;;;;;13.20;99.90;;;;;;5042525;28;20021;-79
2022/05/30 10:19:04;;;;;;;;;;;13.50;99.90;;;;;;5072042;28;19972;-79
2022/05/30 10:21:39;;;;;;;;;;;13.90;99.90;;;;;;5087587;28;19928;-80
2022/05/30 10:30:11;;;;;;;;;;;14.00;99.90;;;;;;5042307;28;19924;-80
2022/05/30 10:32:56;;;;;;;;;;;13.70;99.90;;;;;;5087506;28;19932;-79
2022/05/30 10:35:26;;;;;;;;;;;13.40;99.90;;;;;;5087239;28;20816;-80
2022/05/30 10:37:58;;;;;;;;;;;13.20;99.90;;;;;;5071463;28;19932;-78
2022/05/30 10:40:39;;;;;;;;;;;13.00;99.90;;;;;;5087196;28;19932;-80
2022/05/30 10:43:10;;;;;;;;;;;12.80;99.90;;;;;;5052859;28;19940;-79
2022/05/30 10:45:56;;;;;;;;;;;12.80;99.90;;;;;;5087282;28;20017;-80
2022/05/30 10:48:33;;;;;;;;;;;12.70;99.90;;;;;;5087298;28;19924;-80
2022/05/30 10:51:12;;;;;;;;;;;12.60;99.90;;;;;;5072083;28;19924;-80
2022/05/30 10:53:47;;;;;;;;;;;12.60;99.90;;;;;;5068064;28;20007;-79
2022/05/30 10:56:18;;;;;;;;;;;12.60;99.90;;;;;;5053342;28;20280;-80
2022/05/30 10:58:48;;;;;;;;;;;12.60;99.90;;;;;;5053300;28;19951;-80
2022/05/30 11:01:28;;;;;;;;;;;12.60;99.90;;;;;;5086957;28;19924;-79
2022/05/30 11:04:14;;;;;;;;;;;12.60;99.90;;;;;;5071206;28;20374;-80
2022/05/30 11:06:41;;;;;;;;;;;12.70;99.90;;;;;;5063732;28;19924;-79
2022/05/30 11:09:25;;;;;;;;;;;12.90;99.90;;;;;;5053286;28;19924;-79
2022/05/30 11:11:53;;;;;;;;;;;13.00;99.90;;;;;;5071767;28;20285;-80
2022/05/30 11:14:41;;;;;;;;;;;13.10;99.90;;;;;;5053776;28;19931;-79
2022/05/30 11:17:26;;;;;;;;;;;13.20;99.90;;;;;;5086859;28;19935;-80
2022/05/30 11:20:10;;;;;;;;;;;13.30;99.90;;;;;;5086388;28;19955;-80
2022/05/30 11:22:41;;;;;;;;;;;13.60;99.90;;;;;;5083292;28;20462;-79
2022/05/30 11:25:09;;;;;;;;;;;13.80;99.90;;;;;;5043087;28;19925;-79
2022/05/30 11:27:39;;;;;;;;;;;14.10;99.90;;;;;;5050712;28;19974;-79
2022/05/30 11:30:23;;;;;;;;;;;14.40;99.90;;;;;;5059918;28;19928;-79
2022/05/30 11:33:01;;;;;;;;;;;14.70;99.90;;;;;;5070592;28;20027;-79
2022/05/30 11:35:34;;;;;;;;;;;15.00;99.90;;;;;;5053076;28;20126;-80
2022/05/30 11:38:00;;;;;;;;;;;15.30;99.90;;;;;;5086439;28;19929;-79
2022/05/30 11:40:28;;;;;;;;;;;15.80;99.90;;;;;;5052832;28;19936;-80
2022/05/30 11:43:12;;;;;;;;;;;16.30;99.90;;;;;;5070704;28;19924;-80
2022/05/30 11:45:57;;;;;;;1.52;0.45;;;16.80;99.90;;;;;;5070112;28;19928;-80
2022/05/30 11:48:38;;;;;;;;;;;17.00;99.90;;;;;;5052459;28;20056;-79
2022/05/30 11:51:14;;;;;;;;;;;17.00;99.90;;;;;;5072234;28;20683;-79
2022/05/30 11:53:39;;;;;;;;;;;16.80;99.90;;;;;;5045874;28;19932;-80
2022/05/30 11:56:31;;;;;;;;;;;16.50;99.90;;;;;;5053056;28;19924;-79
2022/05/30 11:59:20;;;;;;;;;;;16.00;99.90;;;;;;5050049;28;20382;-79
2022/05/30 12:01:49;;;;;;;;;;;15.50;99.90;;;;;;5046855;28;19920;-79
2022/05/30 12:04:18;;;;;;;;;;;15.10;99.90;;;;;;5038855;28;20368;-79
2022/05/30 12:06:44;;;;;;;;;;;14.60;99.90;;;;;;5070189;28;20026;-79
2022/05/30 12:09:18;;;;;;;;;;;14.30;99.90;;;;;;5070065;28;20031;-79
2022/05/30 12:11:49;;;;;;;;;;;14.00;99.90;;;;;;5069644;28;19921;-80
2022/05/30 12:14:37;;;;;;;;;;;13.80;99.90;;;;;;5068609;28;20028;-80
2022/05/30 12:17:14;;;;;;;;;;;13.70;99.90;;;;;;5065152;28;19920;-80
2022/05/30 12:25:38;;;;;;;;;;;13.80;99.90;;;;;;5075456;28;20366;-80
2022/05/30 12:28:06;;;;;;;;;;;13.90;99.90;;;;;;5040580;28;20442;-80
2022/05/30 12:30:37;;;;;;;;;;;14.00;99.90;;;;;;5058798;28;19921;-80
2022/05/30 12:33:26;;;;;;;;;;;14.10;99.90;;;;;;5052278;28;20377;-80
2022/05/30 12:36:10;;;;;;;;;;;14.30;99.90;;;;;;5029620;28;20387;-80
2022/05/30 12:39:05;;;;;;;;;;;14.70;99.90;;;;;;5052613;28;19936;-81
2022/05/30 12:41:57;;;;;;;;;;;15.10;99.90;;;;;;5063922;28;19970;-80
2022/05/30 12:44:46;;;;;;;;;;;15.50;99.90;;;;;;5045487;28;19920;-80
2022/05/30 12:47:16;;;;;;;;;;;15.70;99.90;;;;;;5034792;28;19929;-80
2022/05/30 12:49:47;;;;;;;;;;;15.90;99.90;;;;;;5061889;28;19934;-80
2022/05/30 12:52:17;;;;;;;;;;;16.10;99.90;;;;;;5069885;28;19920;-80
2022/05/30 12:54:58;;;;;;;0.87;0.10;;;16.50;99.90;;;;;;5052447;28;19924;-80
2022/05/30 12:57:39;;;;;;;1.70;0.30;;;16.80;99.90;;;;;;5050957;28;20446;-80
2022/05/30 13:00:16;;;;;;;0.68;0.08;;;17.10;99.90;;;;;;5056549;28;20147;-80
2022/05/30 13:03:00;;;;;;;;;;;17.20;99.90;;;;;;5067037;28;20082;-80
2022/05/30 13:05:31;;;;;;;;;;;17.00;99.80;;;;;;5069299;28;19920;-80
2022/05/30 13:07:56;;;;;;;;;;;16.60;99.90;;;;;;5073759;28;19920;-78
2022/05/30 13:10:24;;;;;;;;;;;16.30;99.90;;;;;;5068560;28;19921;-79
2022/05/30 13:13:03;;;;;;;;;;;16.10;99.90;;;;;;5067408;28;20022;-79
2022/05/30 13:15:46;;;;;;;;;;;15.80;99.90;;;;;;5070811;28;19924;-79
2022/05/30 13:18:14;;;;;;;;;;;15.50;99.90;;;;;;5075676;28;20454;-80
2022/05/30 13:20:47;;;;;;;;;;;15.20;99.90;;;;;;5066612;28;19920;-80
2022/05/30 13:23:15;;;;;;;;;;;15.00;99.90;;;;;;5065690;28;19925;-80
2022/05/30 13:25:40;;;;;;;;;;;14.70;99.90;;;;;;5075089;28;20374;-80
2022/05/30 13:28:09;;;;;;;;;;;14.40;99.90;;;;;;5068716;28;19921;-80
2022/05/30 13:30:35;;;;;;;;;;;14.10;99.90;;;;;;5049303;28;19950;-80
2022/05/30 13:33:08;;;;;;;;;;;13.80;99.90;;;;;;5060799;28;19920;-80
2022/05/30 13:35:34;;;;;;;;;;;13.60;99.90;;;;;;5067484;28;20368;-80
2022/05/30 13:38:05;;;;;;;;;;;13.50;99.90;;;;;;5052812;28;19963;-80
2022/05/30 13:40:31;;;;;;;;;;;13.40;99.90;;;;;;5078814;28;19920;-81
2022/05/30 13:42:58;;;;;;;;;;;13.30;99.90;;;;;;5055264;28;19924;-80
2022/05/30 13:45:27;;;;;;;;;;;13.20;99.90;;;;;;5053921;28;20013;-80
2022/05/30 13:47:57;;;;;;;;;;;13.20;99.90;;;;;;5059740;28;19931;-80
2022/05/30 13:50:24;;;;;;;;;;;13.20;99.90;;;;;;5077071;28;19964;-80
2022/05/30 13:52:50;;;;;;;;;;;13.20;99.90;;;;;;5069376;28;20676;-80
2022/05/30 13:55:21;;;;;;;;;;;13.20;99.90;;;;;;5068542;28;19971;-80
2022/05/30 13:57:47;;;;;;;;;;;13.20;99.90;;;;;;5067019;28;19965;-81
2022/05/30 14:00:19;;;;;;;;;;;13.30;99.90;;;;;;5072365;28;20352;-80
2022/05/30 14:02:46;;;;;;;;;;;13.30;99.90;;;;;;5062061;28;19979;-80
2022/05/30 14:05:14;;;;;;;;;;;13.40;99.90;;;;;;5071809;28;19920;-80
2022/05/30 14:07:49;;;;;;;;;;;13.50;99.90;;;;;;5069500;28;19997;-81
2022/05/30 14:10:16;;;;;;;;;;;13.50;99.90;;;;;;5062950;28;19971;-81
2022/05/30 14:12:46;;;;;;;;;;;13.50;99.90;;;;;;5070876;28;19921;-81
2022/05/30 14:15:19;;;;;;;;;;;13.60;99.90;;;;;;5053172;28;19982;-80
2022/05/30 14:17:47;;;;;;;;;;;13.70;99.90;;;;;;5084364;28;19974;-80
2022/05/30 14:20:25;;;;;;;;;;;13.70;99.90;;;;;;5055255;28;19943;-81
2022/05/30 14:22:55;;;;;;;;;;;13.80;99.90;;;;;;5050423;28;19928;-80
2022/05/30 14:25:26;;;;;;;;;;;13.80;99.90;;;;;;5055659;28;19921;-80
2022/05/30 14:27:52;;;;;;;;;;;13.90;99.90;;;;;;5086963;28;19924;-80
2022/05/30 14:30:21;;;;;;;;;;;13.90;99.90;;;;;;5069592;28;20010;-80
2022/05/30 14:32:49;;;;;;;;;;;13.90;99.90;;;;;;5086963;28;19920;-80
2022/05/30 14:35:22;;;;;;;;;;;13.90;99.90;;;;;;5037200;28;19932;-81
2022/05/30 14:37:51;;;;;;;;;;;13.90;99.90;;;;;;5043153;28;19948;-81
2022/05/30 14:40:21;;;;;;;;;;;13.90;99.90;;;;;;5053850;28;20279;-80
2022/05/30 14:42:48;;;;;;;;;;;13.90;99.90;;;;;;5054546;28;19920;-81
2022/05/30 14:45:24;;;;;;;;;;;13.90;99.90;;;;;;5037509;28;20014;-80
2022/05/30 14:47:50;;;;;;;;;;;14.00;99.90;;;;;;5073468;28;19931;-80
2022/05/30 14:50:35;;;;;;;;;;;14.00;99.90;;;;;;5071680;28;19920;-81
2022/05/30 14:53:01;;;;;;;;;;;14.00;99.90;;;;;;5052864;28;20431;-80
2022/05/30 14:55:56;;;;;;;;;;;14.10;99.90;;;;;;5079401;28;19925;-80